Time;durP1;ratioP1;P1;durP2;ratioP2;P2;SDS_P1;SDS_P2;PMS_P1;PMS_P2;Temp;Humidity;BMP_temperature;BMP_pressure;BME280_temperature;BME280_humidity;BME280_pressure;Samples;Min_cycle;Max_cycle;Signal;HPM_P1;HPM_P2
2021/03/16 00:01:06;;;;;;;8.60;5.03;;;22.50;44.60;;;;;;5074857;28;20044;-53
2021/03/16 00:03:51;;;;;;;6.57;5.13;;;22.50;45.20;;;;;;5074066;28;20493;-55
2021/03/16 00:06:37;;;;;;;6.82;4.85;;;22.40;44.40;;;;;;5056439;28;20055;-53
2021/03/16 00:09:03;;;;;;;8.60;5.68;;;22.40;44.20;;;;;;5074282;28;20064;-53
2021/03/16 00:11:29;;;;;;;12.55;6.03;;;22.40;44.10;;;;;;5056755;28;20028;-53
2021/03/16 00:13:55;;;;;;;11.02;5.95;;;22.40;44.00;;;;;;5056343;28;20429;-53
2021/03/16 00:16:23;;;;;;;11.50;7.32;;;22.40;43.90;;;;;;5074454;28;20119;-53
2021/03/16 00:18:49;;;;;;;8.90;5.70;;;22.40;43.90;;;;;;5074225;28;20016;-53
2021/03/16 00:21:15;;;;;;;8.30;5.30;;;22.30;43.70;;;;;;5074323;28;20039;-53
2021/03/16 00:23:41;;;;;;;8.88;5.82;;;22.30;43.80;;;;;;5073138;28;20032;-53
2021/03/16 00:26:07;;;;;;;7.35;5.68;;;22.30;43.60;;;;;;5073650;28;20032;-53
2021/03/16 00:28:33;;;;;;;6.82;5.50;;;22.30;43.50;;;;;;5073457;28;20380;-53
2021/03/16 00:30:58;;;;;;;11.15;6.15;;;22.30;43.50;;;;;;5073810;28;20059;-53
2021/03/16 00:33:24;;;;;;;8.05;5.65;;;22.30;43.50;;;;;;5074059;28;20021;-53
2021/03/16 00:35:50;;;;;;;7.35;5.43;;;22.20;43.30;;;;;;5073731;28;20338;-53
2021/03/16 00:38:17;;;;;;;10.18;5.53;;;22.20;43.30;;;;;;5073844;28;20142;-53
2021/03/16 00:40:43;;;;;;;8.85;5.28;;;22.20;43.40;;;;;;5055825;28;20028;-52
2021/03/16 00:43:09;;;;;;;8.98;5.28;;;22.20;43.20;;;;;;5073717;28;20030;-53
2021/03/16 00:45:35;;;;;;;7.18;5.00;;;22.20;43.10;;;;;;5073632;28;20020;-53
2021/03/16 00:48:01;;;;;;;8.15;5.20;;;22.10;43.00;;;;;;5073413;28;20518;-53
2021/03/16 00:50:28;;;;;;;8.88;5.10;;;22.10;43.00;;;;;;5073366;28;20035;-53
2021/03/16 00:52:57;;;;;;;5.70;4.65;;;22.10;43.00;;;;;;5055433;28;20129;-53
2021/03/16 00:55:23;;;;;;;8.75;4.45;;;22.10;43.00;;;;;;5055648;28;20485;-53
2021/03/16 00:57:49;;;;;;;8.18;4.93;;;22.10;43.10;;;;;;5071494;28;20048;-53
2021/03/16 01:00:15;;;;;;;7.05;4.95;;;22.10;43.00;;;;;;5073190;28;20109;-53
2021/03/16 01:02:41;;;;;;;7.03;4.53;;;22.00;42.90;;;;;;5073006;28;20025;-53
2021/03/16 01:05:08;;;;;;;6.60;4.57;;;22.00;43.00;;;;;;5073798;28;20039;-53
2021/03/16 01:07:33;;;;;;;5.53;4.20;;;22.00;42.80;;;;;;5055594;28;20111;-53
2021/03/16 01:09:59;;;;;;;8.50;5.10;;;22.00;42.70;;;;;;5073053;28;20116;-52
2021/03/16 01:12:25;;;;;;;6.57;4.80;;;21.90;42.70;;;;;;5073206;28;20025;-53
2021/03/16 01:14:51;;;;;;;8.38;5.18;;;21.90;42.80;;;;;;5073271;28;20024;-53
2021/03/16 01:17:17;;;;;;;8.00;4.88;;;21.90;42.80;;;;;;5073082;28;20024;-53
2021/03/16 01:19:43;;;;;;;7.88;6.05;;;21.90;42.80;;;;;;5073242;28;20028;-55
2021/03/16 01:22:09;;;;;;;7.90;6.00;;;21.90;42.80;;;;;;5073083;28;20060;-53
2021/03/16 01:24:35;;;;;;;8.23;4.88;;;21.90;42.90;;;;;;5073047;28;20028;-53
2021/03/16 01:27:00;;;;;;;6.60;5.40;;;21.80;42.90;;;;;;5073012;28;20335;-53
2021/03/16 01:29:26;;;;;;;9.52;5.75;;;21.80;42.90;;;;;;5073001;28;20066;-53
2021/03/16 01:31:52;;;;;;;10.90;5.65;;;21.80;42.90;;;;;;5072698;28;20369;-53
2021/03/16 01:34:18;;;;;;;9.45;5.25;;;21.80;42.90;;;;;;5073193;28;20066;-53
2021/03/16 01:36:44;;;;;;;9.82;5.38;;;21.80;42.90;;;;;;5072728;28;20028;-53
2021/03/16 01:39:10;;;;;;;7.63;4.80;;;21.80;42.80;;;;;;5052978;28;20040;-55
2021/03/16 01:41:36;;;;;;;10.05;5.80;;;21.80;42.90;;;;;;5068245;28;20033;-53
2021/03/16 01:44:02;;;;;;;8.73;5.70;;;21.80;42.80;;;;;;5090156;28;20374;-53
2021/03/16 01:46:28;;;;;;;9.73;5.95;;;21.80;42.70;;;;;;5075123;28;20381;-53
2021/03/16 01:48:54;;;;;;;7.25;5.40;;;21.80;42.70;;;;;;5075330;28;20043;-53
2021/03/16 01:51:20;;;;;;;6.25;5.30;;;21.80;42.70;;;;;;5072553;28;20137;-53
2021/03/16 01:53:46;;;;;;;8.52;5.60;;;21.80;42.80;;;;;;5072871;28;20112;-53
2021/03/16 01:56:14;;;;;;;9.85;5.72;;;21.80;42.80;;;;;;5072659;28;20020;-54
2021/03/16 01:59:00;;;;;;;8.02;5.90;;;21.70;42.60;;;;;;5073010;28;20035;-54
2021/03/16 02:01:45;;;;;;;6.75;4.90;;;21.70;42.60;;;;;;5070642;28;20047;-53
2021/03/16 02:04:29;;;;;;;8.50;6.03;;;21.70;42.70;;;;;;5037745;28;20548;-53
2021/03/16 02:07:33;;;;;;;8.20;6.65;;;21.70;42.70;;;;;;5072086;28;20062;-53
2021/03/16 02:10:41;;;;;;;7.75;6.35;;;21.70;42.70;;;;;;5072274;28;20406;-53
2021/03/16 02:13:48;;;;;;;10.40;6.35;;;21.70;42.70;;;;;;5072298;28;20043;-53
2021/03/16 02:16:36;;;;;;;8.52;6.50;;;21.70;42.60;;;;;;5043322;28;20039;-53
2021/03/16 02:19:58;;;;;;;9.23;6.55;;;21.70;42.60;;;;;;5072425;28;20048;-53
2021/03/16 02:22:45;;;;;;;9.45;6.30;;;21.70;42.70;;;;;;5072732;28;20068;-53
2021/03/16 02:25:51;;;;;;;7.20;6.43;;;21.70;42.70;;;;;;5052724;28;20047;-54
2021/03/16 02:29:13;;;;;;;8.00;5.88;;;21.60;42.70;;;;;;5071289;28;20047;-53
2021/03/16 02:32:05;;;;;;;7.97;6.03;;;21.60;42.70;;;;;;5072753;28;20067;-53
2021/03/16 02:34:59;;;;;;;7.78;6.40;;;21.70;42.70;;;;;;5071973;28;20129;-53
2021/03/16 02:37:44;;;;;;;6.50;5.43;;;21.60;42.70;;;;;;5072128;28;20058;-54
2021/03/16 02:40:30;;;;;;;8.38;5.20;;;21.60;42.70;;;;;;5071611;28;20039;-53
2021/03/16 02:43:16;;;;;;;6.28;5.10;;;21.60;42.80;;;;;;5072020;28;20507;-54
2021/03/16 02:46:03;;;;;;;6.10;4.93;;;21.60;42.80;;;;;;5070660;28;20116;-53
2021/03/16 02:48:48;;;;;;;6.30;5.25;;;21.60;42.80;;;;;;5071053;28;20102;-53
2021/03/16 02:51:33;;;;;;;6.28;4.65;;;21.60;42.80;;;;;;5070731;28;20443;-54
2021/03/16 02:54:19;;;;;;;6.93;5.07;;;21.60;42.80;;;;;;5055141;28;20036;-54
2021/03/16 02:57:03;;;;;;;6.15;4.55;;;21.50;42.80;;;;;;5072809;28;20035;-54
2021/03/16 02:59:49;;;;;;;5.97;5.15;;;21.50;42.80;;;;;;5075939;28;20225;-54
2021/03/16 03:02:35;;;;;;;5.70;4.68;;;21.50;42.80;;;;;;5076012;28;20132;-54
2021/03/16 03:05:20;;;;;;;7.03;4.90;;;21.50;42.80;;;;;;5075821;28;20051;-53
2021/03/16 03:08:06;;;;;;;5.55;4.53;;;21.50;42.80;;;;;;5089226;28;20489;-53
2021/03/16 03:10:51;;;;;;;8.32;5.38;;;21.50;42.90;;;;;;5075837;28;20036;-53
2021/03/16 03:13:36;;;;;;;7.18;5.28;;;21.50;42.80;;;;;;5075862;28;20040;-53
2021/03/16 03:16:20;;;;;;;7.32;4.57;;;21.50;42.80;;;;;;5075743;28;20150;-53
2021/03/16 03:19:05;;;;;;;10.85;5.75;;;21.50;42.90;;;;;;5076000;28;20040;-53
2021/03/16 03:22:03;;;;;;;8.45;5.85;;;21.50;42.80;;;;;;5075763;28;20525;-53
2021/03/16 03:24:56;;;;;;;10.05;5.50;;;21.50;42.70;;;;;;5075132;28;20513;-53
2021/03/16 03:27:44;;;;;;;8.13;5.57;;;21.40;42.60;;;;;;5088894;28;20165;-53
2021/03/16 03:30:29;;;;;;;8.07;6.88;;;21.40;42.80;;;;;;5075349;28;20082;-53
2021/03/16 03:33:16;;;;;;;13.45;7.05;;;21.40;42.70;;;;;;5075533;28;20043;-53
2021/03/16 03:36:03;;;;;;;10.68;7.63;;;21.40;42.70;;;;;;5055411;28;20544;-53
2021/03/16 03:38:48;;;;;;;9.75;7.65;;;21.30;42.60;;;;;;5059469;28;20551;-54
2021/03/16 03:41:35;;;;;;;8.00;6.47;;;21.30;42.60;;;;;;5075579;28;20098;-53
2021/03/16 03:44:22;;;;;;;9.05;7.03;;;21.30;42.70;;;;;;5074931;28;20039;-53
2021/03/16 03:47:10;;;;;;;8.85;7.30;;;21.30;42.80;;;;;;5075123;28;20035;-53
2021/03/16 03:49:56;;;;;;;10.75;7.93;;;21.30;42.70;;;;;;5074787;28;20066;-53
2021/03/16 03:52:42;;;;;;;11.00;8.05;;;21.30;42.60;;;;;;5088469;28;20078;-53
2021/03/16 03:55:28;;;;;;;8.88;7.88;;;21.30;42.60;;;;;;5074793;28;20166;-53
2021/03/16 03:58:14;;;;;;;7.97;7.03;;;21.20;42.60;;;;;;5075036;28;20044;-53
2021/03/16 04:01:00;;;;;;;8.60;6.82;;;21.30;42.70;;;;;;5075123;28;20090;-53
2021/03/16 04:03:45;;;;;;;8.45;7.20;;;21.20;42.70;;;;;;5075014;28;20089;-53
2021/03/16 04:06:30;;;;;;;7.90;6.88;;;21.20;42.80;;;;;;5074577;28;20035;-53
2021/03/16 04:09:15;;;;;;;7.63;6.70;;;21.20;42.80;;;;;;5074573;28;20035;-54
2021/03/16 04:12:00;;;;;;;9.65;6.88;;;21.20;42.80;;;;;;5074829;28;20044;-53
2021/03/16 04:14:44;;;;;;;6.43;5.82;;;21.20;42.60;;;;;;5074927;28;20121;-53
2021/03/16 04:17:29;;;;;;;6.20;5.40;;;21.20;42.60;;;;;;5074601;28;20086;-54
2021/03/16 04:20:15;;;;;;;5.65;4.80;;;21.10;42.50;;;;;;5075212;28;20081;-53
2021/03/16 04:22:59;;;;;;;6.72;4.45;;;21.20;42.50;;;;;;5074612;28;20047;-53
2021/03/16 04:25:44;;;;;;;5.30;4.03;;;21.10;42.40;;;;;;5074995;28;20135;-54
2021/03/16 04:28:28;;;;;;;7.00;4.30;;;21.10;42.40;;;;;;5059021;28;20504;-53
2021/03/16 04:31:13;;;;;;;4.43;3.33;;;21.10;42.40;;;;;;5073007;28;20032;-53
2021/03/16 04:33:57;;;;;;;8.30;4.20;;;21.10;42.30;;;;;;5063808;28;20039;-54
2021/03/16 04:36:42;;;;;;;4.18;3.58;;;21.10;42.30;;;;;;5073624;28;20043;-54
2021/03/16 04:39:26;;;;;;;6.80;3.72;;;21.10;42.40;;;;;;5072778;28;20439;-54
2021/03/16 04:42:11;;;;;;;5.15;3.35;;;21.10;42.30;;;;;;5073878;28;20078;-54
2021/03/16 04:44:55;;;;;;;6.50;3.42;;;21.00;42.20;;;;;;5075882;28;20035;-54
2021/03/16 04:47:40;;;;;;;3.97;2.97;;;21.00;42.20;;;;;;5092860;28;20132;-54
2021/03/16 04:50:26;;;;;;;4.97;3.15;;;21.00;42.30;;;;;;5086911;28;20054;-53
2021/03/16 04:53:10;;;;;;;6.50;3.25;;;21.00;42.30;;;;;;5073555;28;20162;-53
2021/03/16 04:55:54;;;;;;;3.67;2.90;;;21.00;42.30;;;;;;5073079;28;20161;-53
2021/03/16 04:58:39;;;;;;;4.90;3.40;;;21.00;42.30;;;;;;5073659;28;20421;-53
2021/03/16 05:01:24;;;;;;;5.40;3.60;;;21.00;42.40;;;;;;5073366;28;20051;-53
2021/03/16 05:04:09;;;;;;;8.82;3.60;;;21.00;42.30;;;;;;5073768;28;20043;-54
2021/03/16 05:06:53;;;;;;;4.88;3.17;;;20.90;42.20;;;;;;5073754;28;20090;-54
2021/03/16 05:09:38;;;;;;;5.47;3.30;;;20.90;42.20;;;;;;5073394;28;20039;-53
2021/03/16 05:12:23;;;;;;;4.40;3.35;;;20.90;42.20;;;;;;5073292;28;20066;-54
2021/03/16 05:15:08;;;;;;;5.70;3.70;;;20.80;42.20;;;;;;5073060;28;20047;-54
2021/03/16 05:17:52;;;;;;;5.53;3.90;;;20.90;42.20;;;;;;5073469;28;20103;-54
2021/03/16 05:20:37;;;;;;;5.50;3.30;;;20.80;42.10;;;;;;5074051;28;20198;-53
2021/03/16 05:23:21;;;;;;;5.00;2.85;;;20.80;42.10;;;;;;5073266;28;20105;-53
2021/03/16 05:26:06;;;;;;;5.00;3.40;;;20.80;42.20;;;;;;5073607;28;20043;-53
2021/03/16 05:28:51;;;;;;;4.32;3.03;;;20.80;42.30;;;;;;5072997;28;20075;-53
2021/03/16 05:31:35;;;;;;;6.10;3.00;;;20.80;42.20;;;;;;5073425;28;20090;-53
2021/03/16 05:34:20;;;;;;;4.53;2.70;;;20.80;42.20;;;;;;5072995;28;20063;-56
2021/03/16 05:37:05;;;;;;;5.68;2.90;;;20.80;42.20;;;;;;5073086;28;20055;-57
2021/03/16 05:39:49;;;;;;;3.13;2.50;;;20.70;42.10;;;;;;5086303;28;20117;-55
2021/03/16 05:42:34;;;;;;;3.70;2.53;;;20.80;42.20;;;;;;5072633;28;20036;-57
2021/03/16 05:45:19;;;;;;;4.82;2.33;;;20.70;42.10;;;;;;5072869;28;20131;-55
2021/03/16 05:48:06;;;;;;;5.45;3.00;;;20.70;42.10;;;;;;5073053;28;20089;-56
2021/03/16 05:50:52;;;;;;;4.97;3.03;;;20.70;42.10;;;;;;5084166;28;20217;-53
2021/03/16 05:53:36;;;;;;;5.28;2.70;;;20.70;42.10;;;;;;5073000;28;20039;-55
2021/03/16 05:56:21;;;;;;;3.50;2.92;;;20.70;42.10;;;;;;5072621;28;20035;-57
2021/03/16 05:59:07;;;;;;;3.75;2.65;;;20.60;42.10;;;;;;5083621;28;20063;-57
2021/03/16 06:01:52;;;;;;;4.57;2.90;;;20.70;42.20;;;;;;5085896;28;20035;-57
2021/03/16 06:04:36;;;;;;;5.10;3.28;;;20.60;42.10;;;;;;5072721;28;20060;-56
2021/03/16 06:07:21;;;;;;;9.63;4.13;;;20.60;42.10;;;;;;5072831;28;20528;-57
2021/03/16 06:10:06;;;;;;;5.88;3.80;;;20.60;42.10;;;;;;5072730;28;20119;-57
2021/03/16 06:12:51;;;;;;;5.28;4.65;;;20.60;42.00;;;;;;5057328;28;20098;-55
2021/03/16 06:15:35;;;;;;;17.05;8.98;;;20.60;42.00;;;;;;5072364;28;20031;-56
2021/03/16 06:18:26;;;;;;;15.80;13.57;;;20.60;42.10;;;;;;5072444;28;20036;-54
2021/03/16 06:21:16;;;;;;;22.48;19.35;;;20.50;42.00;;;;;;5071147;28;20448;-56
2021/03/16 06:24:01;;;;;;;28.23;23.17;;;20.50;42.20;;;;;;5072721;28;20071;-56
2021/03/16 06:26:49;;;;;;;27.70;24.58;;;20.50;42.20;;;;;;5073612;28;20043;-56
2021/03/16 06:29:43;;;;;;;31.92;26.27;;;20.50;42.30;;;;;;5061730;28;20048;-56
2021/03/16 06:32:35;;;;;;;30.98;25.80;;;20.50;42.40;;;;;;5076993;28;20154;-54
2021/03/16 06:35:20;;;;;;;34.15;28.75;;;20.50;42.40;;;;;;5076527;28;20038;-55
2021/03/16 06:38:11;;;;;;;32.45;28.13;;;20.50;42.50;;;;;;5075384;28;20163;-56
2021/03/16 06:41:07;;;;;;;38.08;31.50;;;20.50;42.60;;;;;;5075027;28;20036;-56
2021/03/16 06:44:00;;;;;;;36.88;30.67;;;20.50;42.70;;;;;;5075931;28;20039;-57
2021/03/16 06:47:17;;;;;;;35.35;31.50;;;20.50;42.70;;;;;;5052823;28;20139;-55
2021/03/16 06:50:03;;;;;;;37.97;33.72;;;20.50;42.70;;;;;;5069396;28;20048;-56
2021/03/16 06:52:51;;;;;;;48.28;40.50;;;20.60;42.80;;;;;;5076188;28;20534;-56
2021/03/16 06:55:35;;;;;;;65.93;56.75;;;20.60;42.80;;;;;;5076268;28;20047;-57
2021/03/16 06:58:28;;;;;;;63.17;54.92;;;20.60;42.80;;;;;;5075930;28;20032;-54
2021/03/16 07:01:18;;;;;;;65.60;58.30;;;20.60;42.80;;;;;;5060880;28;20127;-55
2021/03/16 07:04:31;;;;;;;69.80;62.10;;;20.60;42.80;;;;;;5079620;28;20082;-53
2021/03/16 07:07:17;;;;;;;61.97;53.58;;;20.60;42.90;;;;;;5073184;28;20067;-53
2021/03/16 07:10:05;;;;;;;56.95;50.63;;;20.60;42.80;;;;;;5067597;28;20048;-53
2021/03/16 07:12:51;;;;;;;56.80;50.65;;;20.60;42.80;;;;;;5075734;28;20048;-54
2021/03/16 07:15:39;;;;;;;64.25;50.88;;;20.60;42.80;;;;;;5075825;28;20493;-53
2021/03/16 07:18:24;;;;;;;57.17;50.72;;;20.60;42.90;;;;;;5075717;28;20555;-52
2021/03/16 07:21:08;;;;;;;65.20;55.92;;;20.60;42.90;;;;;;5075424;28;20121;-53
2021/03/16 07:24:04;;;;;;;82.57;73.38;;;20.60;42.90;;;;;;5075311;28;20134;-56
2021/03/16 07:26:49;;;;;;;115.03;102.30;;;20.60;43.00;;;;;;5075656;28;20097;-56
2021/03/16 07:29:34;;;;;;;118.40;105.45;;;20.70;43.00;;;;;;5075468;28;20135;-54
2021/03/16 07:32:19;;;;;;;115.47;100.95;;;20.70;43.00;;;;;;5075608;28;20039;-57
2021/03/16 07:35:05;;;;;;;119.95;104.80;;;20.60;43.50;;;;;;5075691;28;20120;-55
2021/03/16 07:37:49;;;;;;;113.28;97.85;;;20.70;42.90;;;;;;5075280;28;20032;-56
2021/03/16 07:40:35;;;;;;;110.50;95.07;;;20.70;43.00;;;;;;5075692;28;20059;-56
2021/03/16 07:43:30;;;;;;;113.85;93.20;;;20.70;42.90;;;;;;5075517;28;20497;-56
2021/03/16 07:46:17;;;;;;;94.45;83.63;;;20.70;42.90;;;;;;5075499;28;20398;-57
2021/03/16 07:49:01;;;;;;;96.78;81.20;;;20.70;42.90;;;;;;5074365;28;20075;-54
2021/03/16 07:51:46;;;;;;;86.45;77.10;;;20.80;42.90;;;;;;5087272;28;20039;-56
2021/03/16 07:54:36;;;;;;;85.90;72.72;;;20.80;42.90;;;;;;5074295;28;20105;-58
2021/03/16 07:57:30;;;;;;;86.07;72.30;;;20.80;42.80;;;;;;5074185;28;20366;-53
2021/03/16 08:00:16;;;;;;;91.72;73.38;;;20.80;42.80;;;;;;5073884;28;20470;-54
2021/03/16 08:03:03;;;;;;;84.82;70.25;;;20.80;42.80;;;;;;5074455;28;20039;-58
2021/03/16 08:05:47;;;;;;;83.43;64.68;;;20.80;42.80;;;;;;5074262;28;20043;-58
2021/03/16 08:08:40;;;;;;;83.25;67.95;;;20.80;42.80;;;;;;5073625;28;20039;-57
2021/03/16 08:11:39;;;;;;;78.35;64.93;;;20.80;42.90;;;;;;5073512;28;20082;-54
2021/03/16 08:14:29;;;;;;;70.47;56.05;;;20.90;42.90;;;;;;5073580;28;20062;-54
2021/03/16 08:17:35;;;;;;;69.85;50.45;;;20.90;42.80;;;;;;5081247;28;20043;-54
2021/03/16 08:20:26;;;;;;;58.88;42.65;;;20.90;42.70;;;;;;5082843;28;20469;-55
2021/03/16 08:23:13;;;;;;;54.20;38.80;;;20.90;42.50;;;;;;5067295;28;20039;-57
2021/03/16 08:25:58;;;;;;;41.08;29.08;;;21.00;42.50;;;;;;5084114;28;20464;-59
2021/03/16 08:28:47;;;;;;;36.97;23.90;;;20.90;42.30;;;;;;5080233;28;20043;-60
2021/03/16 08:31:33;;;;;;;29.63;22.10;;;20.90;42.00;;;;;;5082374;28;20054;-59
2021/03/16 08:34:21;;;;;;;22.02;16.42;;;20.90;42.00;;;;;;5078417;28;20027;-54
2021/03/16 08:37:05;;;;;;;21.23;16.10;;;21.00;41.90;;;;;;5057399;28;20082;-59
2021/03/16 08:39:51;;;;;;;24.05;16.38;;;21.00;42.00;;;;;;5073002;28;20043;-60
2021/03/16 08:42:35;;;;;;;20.60;15.57;;;21.00;42.00;;;;;;5057249;28;20500;-55
2021/03/16 08:45:42;;;;;;;21.58;15.13;;;21.00;42.10;;;;;;5072581;28;20094;-54
2021/03/16 08:48:32;;;;;;;24.17;17.17;;;21.10;42.10;;;;;;5041364;28;909906;-63
2021/03/16 08:51:22;;;;;;;29.20;20.55;;;21.10;42.00;;;;;;5073476;28;20039;-64
2021/03/16 08:54:07;;;;;;;40.25;30.83;;;21.10;41.80;;;;;;5058923;28;20732;-60
2021/03/16 08:56:53;;;;;;;38.17;32.10;;;21.10;41.80;;;;;;5073701;28;20035;-59
2021/03/16 08:59:38;;;;;;;34.63;29.85;;;21.20;41.80;;;;;;5073950;28;20089;-64
2021/03/16 09:02:30;;;;;;;36.63;30.98;;;21.20;41.80;;;;;;5074204;28;20067;-64
2021/03/16 09:05:27;;;;;;;38.30;26.20;;;21.20;41.70;;;;;;5074213;28;20035;-62
2021/03/16 09:08:12;;;;;;;68.07;54.22;;;21.30;41.70;;;;;;5073533;28;20131;-62
2021/03/16 09:10:56;;;;;;;84.85;69.30;;;21.30;41.80;;;;;;5083266;28;20524;-58
2021/03/16 09:13:41;;;;;;;84.60;71.70;;;21.30;41.80;;;;;;5082518;28;20745;-59
2021/03/16 09:16:26;;;;;;;91.90;77.38;;;21.30;41.80;;;;;;5087330;28;20032;-58
2021/03/16 09:19:14;;;;;;;97.78;82.28;;;21.30;41.70;;;;;;5085486;28;20439;-58
2021/03/16 09:22:05;;;;;;;99.43;80.10;;;21.40;41.70;;;;;;5079958;28;20035;-58
2021/03/16 09:24:50;;;;;;;;;;;21.40;41.70;;;;;;5037910;28;20044;-58
2021/03/16 09:27:36;;;;;;;91.53;72.03;;;21.40;41.90;;;;;;5052667;28;20271;-58
2021/03/16 09:30:21;;;;;;;85.72;73.22;;;21.50;41.60;;;;;;5052782;28;20182;-60
2021/03/16 09:33:08;;;;;;;71.30;58.85;;;21.50;41.60;;;;;;5053214;28;20052;-62
2021/03/16 09:36:00;;;;;;;72.80;59.17;;;21.50;41.60;;;;;;5053151;28;20087;-61
2021/03/16 09:39:01;;;;;;;74.90;57.85;;;21.60;41.70;;;;;;5079403;28;20127;-62
2021/03/16 09:41:55;;;;;;;52.88;44.40;;;21.60;41.70;;;;;;5051240;28;20360;-58
2021/03/16 09:44:29;;;;;;;52.63;35.33;;;21.60;41.70;;;;;;5072784;28;20028;-60
2021/03/16 09:46:55;;;;;;;37.10;29.98;;;21.60;41.60;;;;;;5036862;28;20024;-64
2021/03/16 09:49:33;;;;;;;40.35;27.10;;;21.70;41.60;;;;;;5044488;28;20049;-60
2021/03/16 09:52:04;;;;;;;43.08;23.63;;;21.60;41.50;;;;;;5071462;28;20024;-61
2021/03/16 09:54:45;;;;;;;30.40;19.80;;;21.70;41.50;;;;;;5087352;28;20021;-61
2021/03/16 09:57:13;;;;;;;39.00;19.70;;;21.70;41.60;;;;;;5068843;28;20025;-60
2021/03/16 09:59:46;;;;;;;15.65;10.15;;;21.70;41.60;;;;;;5051693;28;20051;-63
2021/03/16 10:02:13;;;;;;;10.90;6.38;;;21.80;41.60;;;;;;5051543;28;20486;-64
2021/03/16 10:04:49;;;;;;;8.43;4.63;;;21.80;41.60;;;;;;5051952;28;20059;-64
2021/03/16 10:07:30;;;;;;;7.65;4.68;;;21.80;41.60;;;;;;5051506;28;20869;-60
2021/03/16 10:10:20;;;;;;;7.68;4.65;;;21.90;41.60;;;;;;5055509;28;20470;-60
2021/03/16 10:13:06;;;;;;;17.40;6.45;;;21.90;41.70;;;;;;5051242;28;20414;-60
2021/03/16 10:15:45;;;;;;;13.75;6.15;;;21.90;41.60;;;;;;5052045;28;20560;-63
2021/03/16 10:18:14;;;;;;;11.77;6.22;;;22.00;41.60;;;;;;5053564;28;20059;-60
2021/03/16 10:20:43;;;;;;;8.05;6.15;;;22.00;41.60;;;;;;5053643;28;20047;-60
2021/03/16 10:23:16;;;;;;;11.57;6.90;;;22.10;41.80;;;;;;5071368;28;20033;-60
2021/03/16 10:25:42;;;;;;;7.82;6.32;;;22.10;41.80;;;;;;5067187;28;20028;-60
2021/03/16 10:28:12;;;;;;;8.30;5.80;;;22.10;41.80;;;;;;5071348;28;20025;-60
2021/03/16 10:30:42;;;;;;;8.75;6.47;;;22.20;41.80;;;;;;5071440;28;20028;-60
2021/03/16 10:33:10;;;;;;;9.82;5.72;;;22.20;41.80;;;;;;5070976;28;20025;-60
2021/03/16 10:35:37;;;;;;;8.73;5.72;;;22.30;41.90;;;;;;5052902;28;20705;-61
2021/03/16 10:38:04;;;;;;;9.45;5.95;;;22.30;41.90;;;;;;5071185;28;20078;-60
2021/03/16 10:40:32;;;;;;;9.40;5.50;;;22.30;41.90;;;;;;5071638;28;20806;-64
2021/03/16 10:42:58;;;;;;;10.57;3.70;;;22.40;42.00;;;;;;5042325;28;20029;-62
2021/03/16 10:45:25;;;;;;;5.10;3.00;;;22.40;42.90;;;;;;5051362;28;20036;-61
2021/03/16 10:47:52;;;;;;;4.85;2.08;;;22.40;43.80;;;;;;5051694;28;20085;-60
2021/03/16 10:50:19;;;;;;;7.43;1.98;;;22.40;44.30;;;;;;5051114;28;20037;-61
2021/03/16 10:52:45;;;;;;;2.97;1.52;;;22.50;44.50;;;;;;5051163;28;20029;-61
2021/03/16 10:55:11;;;;;;;5.63;2.28;;;22.50;44.50;;;;;;5033251;28;20070;-61
2021/03/16 10:57:37;;;;;;;5.55;2.85;;;22.50;44.80;;;;;;5050948;28;20459;-60
2021/03/16 11:00:06;;;;;;;9.40;7.03;;;22.60;45.10;;;;;;5051270;28;20033;-61
2021/03/16 11:02:32;;;;;;;8.38;5.47;;;22.60;44.90;;;;;;5051094;28;20095;-60
2021/03/16 11:04:58;;;;;;;7.15;2.80;;;22.60;45.40;;;;;;5061460;28;20421;-61
2021/03/16 11:07:24;;;;;;;6.30;4.47;;;22.70;45.90;;;;;;5050747;28;20032;-64
2021/03/16 11:09:50;;;;;;;9.88;5.93;;;22.70;45.80;;;;;;5079249;28;20037;-65
2021/03/16 11:12:17;;;;;;;6.75;3.40;;;22.70;45.70;;;;;;5033352;28;20025;-64
2021/03/16 11:14:44;;;;;;;4.07;2.55;;;22.70;45.90;;;;;;5036715;28;20035;-64
2021/03/16 11:17:11;;;;;;;4.72;2.33;;;22.80;46.10;;;;;;5054690;28;20104;-65
2021/03/16 11:19:37;;;;;;;6.60;2.80;;;22.80;46.00;;;;;;5054728;28;20462;-64
2021/03/16 11:22:03;;;;;;;7.85;2.95;;;22.80;46.00;;;;;;5054422;28;20070;-65
2021/03/16 11:24:29;;;;;;;4.45;2.35;;;22.90;46.00;;;;;;5054480;28;20025;-65
2021/03/16 11:26:55;;;;;;;5.35;2.17;;;22.90;46.00;;;;;;5054655;28;20417;-65
2021/03/16 11:29:21;;;;;;;5.78;2.70;;;22.90;46.20;;;;;;5070117;28;20474;-65
2021/03/16 11:31:47;;;;;;;17.10;13.20;;;22.90;45.90;;;;;;5074518;28;20398;-65
2021/03/16 11:34:32;;;;;;;16.10;14.00;;;23.00;46.60;;;;;;5074848;28;20036;-55
2021/03/16 11:37:17;;;;;;;6.28;2.83;;;23.00;46.10;;;;;;5075653;28;20039;-58
2021/03/16 11:40:03;;;;;;;8.63;5.32;;;23.00;46.50;;;;;;5075455;28;20048;-58
2021/03/16 11:42:47;;;;;;;12.20;7.95;;;23.10;46.50;;;;;;5078850;28;20555;-59
2021/03/16 11:45:32;;;;;;;21.95;18.13;;;23.20;46.50;;;;;;5073404;28;20040;-59
2021/03/16 11:48:17;;;;;;;6.10;4.63;;;23.20;46.30;;;;;;5082401;28;20090;-59
2021/03/16 11:51:03;;;;;;;9.73;6.90;;;23.30;46.30;;;;;;5081160;28;20091;-58
2021/03/16 11:53:47;;;;;;;11.30;7.20;;;23.50;46.00;;;;;;5077831;28;20062;-59
2021/03/16 11:56:32;;;;;;;6.05;2.90;;;23.60;45.80;;;;;;5074010;28;20410;-58
2021/03/16 11:59:17;;;;;;;4.10;2.95;;;23.70;45.50;;;;;;5059573;28;20066;-60
2021/03/16 12:02:02;;;;;;;6.68;3.22;;;23.90;45.30;;;;;;5075085;28;20043;-61
2021/03/16 12:04:46;;;;;;;13.35;3.92;;;23.90;45.20;;;;;;5074542;28;20074;-59
2021/03/16 12:07:31;;;;;;;19.20;4.30;;;24.00;45.00;;;;;;5074992;28;20050;-59
2021/03/16 12:10:16;;;;;;;5.90;2.55;;;24.10;44.80;;;;;;5074474;28;20504;-60
2021/03/16 12:13:00;;;;;;;7.68;2.83;;;24.20;44.80;;;;;;5075114;28;20146;-60
2021/03/16 12:15:45;;;;;;;5.97;2.65;;;24.30;44.70;;;;;;5074643;28;20082;-60
2021/03/16 12:18:29;;;;;;;3.08;1.48;;;24.40;44.70;;;;;;5074671;28;20058;-60
2021/03/16 12:21:14;;;;;;;4.47;1.30;;;24.40;44.70;;;;;;5074548;28;20052;-58
2021/03/16 12:23:58;;;;;;;4.72;2.08;;;24.50;44.80;;;;;;5073481;28;20039;-61
2021/03/16 12:26:43;;;;;;;7.60;1.83;;;24.60;44.50;;;;;;5073761;28;20047;-60
2021/03/16 12:29:28;;;;;;;3.95;1.50;;;24.70;44.50;;;;;;5064118;28;20039;-58
2021/03/16 12:32:12;;;;;;;3.60;1.38;;;24.70;44.40;;;;;;5071087;28;20183;-58
2021/03/16 12:34:58;;;;;;;2.78;1.90;;;24.80;44.50;;;;;;5060999;28;20085;-58
2021/03/16 12:37:43;;;;;;;9.60;2.95;;;24.80;44.20;;;;;;5073590;28;20051;-57
2021/03/16 12:40:28;;;;;;;9.25;5.18;;;24.90;44.10;;;;;;5054498;28;20051;-57
2021/03/16 12:43:14;;;;;;;16.67;7.93;;;24.90;44.00;;;;;;5053974;28;20378;-58
2021/03/16 12:45:59;;;;;;;12.25;7.38;;;24.90;43.90;;;;;;5086919;28;20052;-60
2021/03/16 12:48:43;;;;;;;20.15;6.80;;;25.00;43.80;;;;;;5068808;28;20113;-59
2021/03/16 12:51:28;;;;;;;11.90;5.65;;;25.00;43.70;;;;;;5073283;28;20048;-59
2021/03/16 12:54:13;;;;;;;9.52;4.75;;;25.10;43.70;;;;;;5071199;28;20043;-60
2021/03/16 12:56:57;;;;;;;12.82;5.22;;;25.10;43.60;;;;;;5054262;28;20055;-58
2021/03/16 12:59:42;;;;;;;7.55;4.25;;;25.10;43.50;;;;;;5071019;28;20560;-57
2021/03/16 13:02:27;;;;;;;6.05;3.65;;;25.20;43.40;;;;;;5072230;28;20078;-59
2021/03/16 13:05:12;;;;;;;16.73;4.05;;;25.20;43.40;;;;;;5057269;28;20501;-58
2021/03/16 13:07:57;;;;;;;7.90;3.97;;;25.20;43.30;;;;;;5069212;28;20044;-59
2021/03/16 13:10:41;;;;;;;9.85;4.07;;;25.30;43.30;;;;;;5072577;28;20478;-58
2021/03/16 13:13:26;;;;;;;7.78;3.50;;;25.30;43.20;;;;;;5058030;28;20432;-58
2021/03/16 13:16:11;;;;;;;7.93;3.63;;;25.30;43.20;;;;;;5073055;28;20062;-60
2021/03/16 13:18:55;;;;;;;7.25;3.70;;;25.30;43.00;;;;;;5053204;28;20051;-59
2021/03/16 13:21:42;;;;;;;6.22;3.25;;;25.40;42.90;;;;;;5067923;28;20035;-60
2021/03/16 13:24:26;;;;;;;5.18;3.20;;;25.40;42.80;;;;;;5061445;28;20042;-59
2021/03/16 13:27:15;;;;;;;4.13;3.03;;;25.40;42.70;;;;;;5072705;28;20035;-58
2021/03/16 13:30:01;;;;;;;5.32;3.20;;;25.40;42.60;;;;;;5071746;28;20402;-60
2021/03/16 13:32:46;;;;;;;6.13;2.90;;;25.50;42.70;;;;;;5053645;28;20079;-60
2021/03/16 13:35:30;;;;;;;5.78;2.50;;;25.50;42.60;;;;;;5057348;28;20039;-63
2021/03/16 13:38:15;;;;;;;3.97;2.60;;;25.50;42.60;;;;;;5058721;28;20102;-62
2021/03/16 13:40:59;;;;;;;4.68;2.83;;;25.50;42.60;;;;;;5072513;28;20492;-59
2021/03/16 13:43:45;;;;;;;5.50;2.60;;;25.50;42.60;;;;;;5072685;28;20066;-58
2021/03/16 13:46:29;;;;;;;10.65;3.42;;;25.60;42.60;;;;;;5063729;28;20142;-60
2021/03/16 13:49:14;;;;;;;6.55;3.92;;;25.60;42.60;;;;;;5046367;28;20047;-59
2021/03/16 13:51:59;;;;;;;24.00;21.48;;;25.60;42.60;;;;;;5081656;28;20053;-59
2021/03/16 13:54:44;;;;;;;31.92;27.13;;;25.70;42.50;;;;;;5077528;28;20086;-59